createdAt,value
2019-03-09T00:01:09.756Z,1.18
2019-03-09T00:06:15.753Z,1.23
2019-03-09T00:11:21.783Z,1.11
2019-03-09T00:16:27.729Z,1.66
2019-03-09T00:21:33.695Z,1.15
2019-03-09T00:26:39.700Z,1.07
2019-03-09T00:31:45.705Z,1.48
2019-03-09T00:36:51.716Z,1.15
2019-03-09T00:41:57.693Z,1.10
2019-03-09T00:47:03.674Z,1.03
2019-03-09T00:52:09.691Z,1.29
2019-03-09T00:57:15.658Z,1.24
2019-03-09T01:02:21.675Z,1.30
2019-03-09T01:07:27.629Z,1.33
2019-03-09T01:12:33.704Z,1.23
2019-03-09T01:17:39.669Z,1.48
2019-03-09T01:22:45.659Z,1.88
2019-03-09T01:27:51.630Z,1.89
2019-03-09T01:32:57.629Z,2.59
2019-03-09T01:38:03.617Z,4.54
2019-03-09T01:43:09.647Z,1.72
2019-03-09T01:48:15.652Z,1.04
2019-03-09T01:53:21.670Z,1.71
2019-03-09T01:58:27.687Z,1.04
2019-03-09T02:03:33.678Z,1.00
2019-03-09T02:08:39.687Z,1.45
2019-03-09T02:13:45.691Z,0.89
2019-03-09T02:18:51.640Z,0.81
2019-03-09T02:23:57.633Z,0.97
2019-03-09T02:29:03.632Z,1.00
2019-03-09T02:34:09.612Z,1.07
2019-03-09T02:39:15.622Z,0.92
2019-03-09T02:44:21.650Z,0.57
2019-03-09T02:49:27.675Z,0.96
2019-03-09T02:54:33.675Z,0.61
2019-03-09T02:59:39.674Z,0.45
2019-03-09T03:04:45.656Z,0.53
2019-03-09T03:09:51.655Z,0.43
2019-03-09T03:14:57.649Z,0.42
2019-03-09T03:20:03.726Z,0.32
2019-03-09T03:25:09.719Z,0.35
2019-03-09T03:30:15.831Z,0.26
2019-03-09T03:35:21.842Z,0.31
2019-03-09T03:40:27.917Z,0.18
2019-03-09T03:45:33.882Z,0.26
2019-03-09T03:50:39.858Z,0.18
2019-03-09T03:55:45.858Z,0.14
2019-03-09T04:00:51.849Z,0.38
2019-03-09T04:05:57.831Z,0.22
2019-03-09T04:11:05.892Z,0.23
2019-03-09T04:16:09.418Z,0.21
2019-03-09T04:21:15.390Z,0.18
2019-03-09T04:26:21.496Z,0.26
2019-03-09T04:31:27.492Z,0.20
2019-03-09T04:36:33.461Z,0.13
2019-03-09T04:41:39.688Z,0.19
2019-03-09T04:46:45.674Z,0.20
2019-03-09T04:51:51.673Z,0.10
2019-03-09T04:56:57.665Z,0.26
2019-03-09T05:02:03.761Z,0.12
2019-03-09T05:07:09.742Z,0.24
2019-03-09T05:12:15.730Z,0.14
2019-03-09T05:17:21.781Z,0.09
2019-03-09T05:22:27.788Z,0.13
2019-03-09T05:27:33.882Z,0.07
2019-03-09T05:32:39.987Z,0.13
2019-03-09T05:37:45.953Z,0.10
2019-03-09T05:42:52.024Z,0.15
2019-03-09T05:47:58.253Z,0.13
2019-03-09T05:53:04.257Z,0.11
2019-03-09T05:58:10.322Z,0.27
2019-03-09T06:03:16.597Z,0.42
2019-03-09T06:08:22.604Z,0.48
2019-03-09T06:13:28.624Z,0.45
2019-03-09T06:18:34.692Z,0.63
2019-03-09T06:23:40.790Z,0.59
2019-03-09T06:28:46.795Z,1.12
2019-03-09T06:33:52.802Z,0.87
2019-03-09T06:38:58.782Z,0.79
2019-03-09T06:44:04.767Z,0.80
2019-03-09T06:49:10.745Z,0.86
2019-03-09T06:54:16.745Z,1.31
2019-03-09T06:59:22.717Z,1.28
2019-03-09T07:04:28.688Z,0.98
2019-03-09T07:09:34.733Z,1.08
2019-03-09T07:14:40.727Z,1.40
2019-03-09T07:19:46.772Z,1.66
2019-03-09T07:24:52.814Z,1.12
2019-03-09T07:29:58.806Z,1.28
2019-03-09T07:35:04.791Z,1.27
2019-03-09T07:40:10.817Z,1.14
2019-03-09T07:45:16.871Z,1.15
2019-03-09T07:50:22.861Z,1.11
2019-03-09T07:55:28.882Z,1.41
2019-03-09T08:00:35.047Z,1.96
2019-03-09T08:05:41.023Z,2.21
2019-03-09T08:10:47.078Z,1.18
2019-03-09T08:15:53.104Z,1.63
2019-03-09T08:20:59.188Z,1.83
2019-03-09T08:26:05.276Z,1.29
2019-03-09T08:31:11.437Z,1.63
2019-03-09T08:36:17.524Z,1.36
2019-03-09T08:41:23.852Z,0.87
2019-03-09T08:46:29.895Z,1.79
2019-03-09T08:51:35.982Z,1.13
2019-03-09T08:56:41.979Z,0.82
2019-03-09T09:01:48.034Z,0.99
2019-03-09T09:06:54.032Z,0.83
2019-03-09T09:12:00.028Z,1.00
2019-03-09T09:17:06.116Z,1.02
2019-03-09T09:22:12.115Z,1.74
2019-03-09T09:27:18.112Z,1.04
2019-03-09T09:32:24.371Z,1.50
2019-03-09T09:37:30.351Z,2.78
2019-03-09T09:42:36.346Z,1.35
2019-03-09T09:47:42.730Z,2.92
2019-03-09T09:52:48.420Z,0.99
2019-03-09T09:57:54.503Z,0.99
2019-03-09T10:03:00.504Z,0.95
2019-03-09T10:08:06.613Z,0.96
2019-03-09T10:13:12.641Z,0.93
2019-03-09T10:18:18.707Z,1.08
2019-03-09T10:23:24.708Z,1.37
2019-03-09T10:28:30.697Z,0.77
2019-03-09T10:33:36.740Z,0.90
2019-03-09T10:38:43.088Z,1.88
2019-03-09T10:43:49.118Z,1.21
2019-03-09T10:48:55.200Z,1.52
2019-03-09T10:54:01.255Z,1.23
2019-03-09T10:59:07.316Z,1.15
2019-03-09T11:04:13.749Z,0.86
2019-03-09T11:09:19.974Z,1.20
2019-03-09T11:14:26.054Z,0.65
2019-03-09T11:19:32.079Z,0.58
2019-03-09T11:24:38.112Z,0.83
2019-03-09T11:29:44.216Z,0.90
2019-03-09T11:34:53.397Z,1.04
2019-03-09T11:39:59.424Z,0.64
2019-03-09T11:45:05.584Z,0.82
2019-03-09T11:50:11.646Z,0.44
2019-03-09T11:55:17.812Z,0.66
2019-03-09T12:00:23.859Z,0.57
2019-03-09T12:05:30.018Z,0.54
2019-03-09T12:10:36.011Z,0.77
2019-03-09T12:15:42.054Z,0.84
2019-03-09T12:20:48.208Z,0.63
2019-03-09T12:25:54.214Z,0.51
2019-03-09T12:31:00.318Z,0.88
2019-03-09T12:36:06.473Z,0.55
2019-03-09T12:41:12.473Z,0.86
2019-03-09T12:46:18.505Z,0.61
2019-03-09T12:51:24.549Z,0.60
2019-03-09T12:56:30.632Z,0.47
2019-03-09T13:01:36.659Z,0.45
2019-03-09T13:06:42.701Z,0.61
2019-03-09T13:11:48.674Z,0.76
2019-03-09T13:16:54.676Z,0.94
2019-03-09T13:22:00.702Z,0.59
2019-03-09T13:27:06.733Z,0.48
2019-03-09T13:32:12.748Z,0.63
2019-03-09T13:37:18.789Z,0.50
2019-03-09T13:42:24.844Z,1.31
2019-03-09T13:47:30.882Z,1.24
2019-03-09T13:52:36.921Z,2.26
2019-03-09T13:57:43.104Z,1.21
2019-03-09T14:02:49.101Z,1.45
2019-03-09T14:07:55.149Z,2.15
2019-03-09T14:13:01.229Z,1.69
2019-03-09T14:18:07.280Z,1.31
2019-03-09T14:23:13.321Z,1.46
2019-03-09T14:28:19.542Z,2.28
2019-03-09T14:33:25.607Z,1.77
2019-03-09T14:38:31.725Z,1.59
2019-03-09T14:43:37.754Z,2.85
2019-03-09T14:48:43.793Z,2.08
2019-03-09T14:53:49.950Z,3.27
2019-03-09T14:58:56.022Z,3.56
2019-03-09T15:04:02.044Z,3.52
2019-03-09T15:09:08.059Z,2.58
2019-03-09T15:14:14.336Z,2.52
2019-03-09T15:19:20.365Z,2.60
2019-03-09T15:24:26.444Z,2.76
2019-03-09T15:29:32.866Z,2.45
2019-03-09T15:39:49.874Z,3.80
2019-03-09T15:44:55.911Z,2.82
2019-03-09T15:50:01.968Z,3.29
2019-03-09T15:55:08.036Z,2.32
2019-03-09T16:00:14.210Z,2.34
2019-03-09T16:05:20.277Z,2.44
2019-03-09T16:10:26.406Z,2.18
2019-03-09T16:15:32.430Z,3.66
2019-03-09T16:20:38.512Z,2.62
2019-03-09T16:25:44.531Z,2.53
2019-03-09T16:30:50.595Z,2.53
2019-03-09T16:35:56.688Z,4.06
2019-03-09T16:41:02.743Z,3.66
2019-03-09T16:46:09.038Z,2.98
2019-03-09T16:51:15.115Z,2.11
2019-03-09T16:56:21.138Z,2.19
2019-03-09T17:01:27.406Z,2.27
2019-03-09T17:06:33.477Z,2.26
2019-03-09T17:11:39.512Z,2.60
2019-03-09T17:16:45.580Z,2.59
2019-03-09T17:21:51.650Z,2.58
2019-03-09T17:26:57.731Z,2.63
2019-03-09T17:32:03.810Z,2.87
2019-03-09T17:37:09.879Z,2.40
2019-03-09T17:42:15.939Z,2.29
2019-03-09T17:47:22.201Z,2.02
2019-03-09T17:52:28.250Z,1.91
2019-03-09T17:57:34.312Z,2.06
2019-03-09T18:02:40.355Z,2.10
2019-03-09T18:07:46.441Z,2.06
2019-03-09T18:12:52.498Z,1.96
2019-03-09T18:17:58.544Z,1.80
2019-03-09T18:23:04.580Z,2.56
2019-03-09T18:28:10.632Z,4.45
2019-03-09T18:33:16.707Z,3.08
2019-03-09T18:38:22.784Z,3.47
2019-03-09T18:43:28.844Z,3.04
2019-03-09T18:48:34.884Z,3.10
2019-03-09T18:53:41.009Z,4.32
2019-03-09T18:58:47.157Z,2.26
2019-03-09T19:03:53.268Z,5.03
2019-03-09T19:08:59.318Z,2.15
2019-03-09T19:14:05.432Z,2.60
2019-03-09T19:19:11.564Z,2.44
2019-03-09T19:24:17.625Z,3.99
2019-03-09T19:29:23.696Z,3.79
2019-03-09T19:34:29.762Z,3.84
2019-03-09T19:39:35.809Z,2.35
2019-03-09T19:44:41.891Z,3.12
2019-03-09T19:49:48.009Z,2.93
2019-03-09T19:54:54.128Z,3.67
2019-03-09T20:00:00.349Z,2.79
2019-03-09T20:05:07.345Z,2.41
2019-03-09T20:10:11.926Z,2.02
2019-03-09T20:15:18.028Z,2.13
2019-03-09T20:20:24.002Z,1.57
2019-03-09T20:25:30.145Z,1.69
2019-03-09T20:30:36.238Z,1.66
2019-03-09T20:35:42.253Z,1.68
2019-03-09T20:40:48.364Z,2.41
2019-03-09T20:45:54.467Z,1.65
2019-03-09T20:51:00.582Z,1.28
2019-03-09T20:56:06.694Z,2.14
2019-03-09T21:01:12.814Z,1.68
2019-03-09T21:06:18.871Z,2.68
2019-03-09T21:11:24.976Z,1.93
2019-03-09T21:16:31.276Z,4.55
2019-03-09T21:21:37.308Z,2.73
2019-03-09T21:26:43.415Z,2.48
2019-03-09T21:31:49.435Z,5.21
2019-03-09T21:36:55.446Z,3.61
2019-03-09T21:42:01.519Z,3.59
2019-03-09T21:47:07.571Z,4.29
2019-03-09T21:52:13.710Z,3.15
2019-03-09T21:57:19.740Z,3.45
2019-03-09T22:02:25.787Z,5.03
2019-03-09T22:07:31.852Z,3.15
2019-03-09T22:12:38.005Z,3.33
2019-03-09T22:17:44.732Z,3.74
2019-03-09T22:22:50.764Z,3.79
2019-03-09T22:27:57.121Z,4.05
2019-03-09T22:33:04.539Z,3.98
2019-03-09T22:38:08.410Z,4.46
2019-03-09T22:43:14.508Z,3.45
2019-03-09T22:48:20.522Z,3.53
2019-03-09T22:53:26.598Z,3.18
2019-03-09T22:58:32.600Z,3.18
2019-03-09T23:03:38.709Z,3.39
2019-03-09T23:08:44.782Z,4.74
2019-03-09T23:13:51.141Z,5.35
2019-03-09T23:18:57.166Z,3.50
2019-03-09T23:24:03.205Z,4.00
2019-03-09T23:29:09.250Z,3.96
2019-03-09T23:34:15.349Z,3.72
2019-03-09T23:39:21.465Z,4.10
2019-03-09T23:44:27.653Z,3.87
2019-03-09T23:49:33.678Z,3.86
2019-03-09T23:54:39.679Z,4.09
2019-03-09T23:59:45.702Z,6.05
